Time;durP1;ratioP1;P1;durP2;ratioP2;P2;SDS_P1;SDS_P2;PMS_P1;PMS_P2;Temp;Humidity;BMP_temperature;BMP_pressure;BME280_temperature;BME280_humidity;BME280_pressure;Samples;Min_cycle;Max_cycle;Signal;HPM_P1;HPM_P2
2023/09/18 00:00:25;;;;;;;10.93;6.13;;;;;;;;;;6040240;23;20325;-76
2023/09/18 00:02:51;;;;;;;9.00;6.60;;;;;;;;;;6039695;23;20337;-76
2023/09/18 00:05:17;;;;;;;8.40;6.10;;;;;;;;;;6067498;23;20070;-77
2023/09/18 00:07:43;;;;;;;7.97;5.82;;;;;;;;;;6042809;23;20007;-77
2023/09/18 00:10:13;;;;;;;8.27;5.50;;;;;;;;;;6042190;23;20752;-77
2023/09/18 00:12:40;;;;;;;7.72;6.00;;;;;;;;;;6040370;23;20295;-78
2023/09/18 00:15:08;;;;;;;7.88;6.30;;;;;;;;;;6065569;23;20058;-76
2023/09/18 00:17:37;;;;;;;8.52;6.15;;;;;;;;;;6039692;23;20733;-76
2023/09/18 00:20:06;;;;;;;9.57;6.28;;;;;;;;;;6064963;23;20477;-74
2023/09/18 00:22:32;;;;;;;8.25;5.55;;;;;;;;;;6039527;23;20066;-76
2023/09/18 00:24:57;;;;;;;9.00;6.75;;;;;;;;;;6039693;23;20378;-74
2023/09/18 00:27:23;;;;;;;11.35;5.65;;;;;;;;;;6065263;23;20003;-74
2023/09/18 00:29:48;;;;;;;7.43;5.63;;;;;;;;;;6039308;23;20037;-74
2023/09/18 00:32:14;;;;;;;9.88;5.88;;;;;;;;;;6039345;23;20014;-74
2023/09/18 00:34:40;;;;;;;7.68;5.80;;;;;;;;;;6065001;23;20030;-74
2023/09/18 00:37:05;;;;;;;6.80;4.95;;;;;;;;;;6039207;23;20006;-74
2023/09/18 00:39:31;;;;;;;7.50;5.72;;;;;;;;;;6040128;23;20336;-74
2023/09/18 00:41:56;;;;;;;9.90;5.95;;;;;;;;;;6039510;23;20293;-74
2023/09/18 00:44:23;;;;;;;7.47;5.40;;;;;;;;;;6065740;23;20013;-75
2023/09/18 00:46:49;;;;;;;7.82;5.97;;;;;;;;;;6063859;23;20033;-74
2023/09/18 00:49:17;;;;;;;9.18;5.55;;;;;;;;;;6040403;23;20011;-75
2023/09/18 00:51:43;;;;;;;8.88;6.13;;;;;;;;;;6040249;23;20002;-75
2023/09/18 00:54:10;;;;;;;8.13;5.53;;;;;;;;;;6039869;23;20035;-75
2023/09/18 00:56:35;;;;;;;9.23;5.90;;;;;;;;;;6015749;23;20321;-74
2023/09/18 00:59:03;;;;;;;9.32;5.75;;;;;;;;;;6064418;23;20147;-74
2023/09/18 01:01:29;;;;;;;10.48;5.88;;;;;;;;;;6064881;23;20447;-75
2023/09/18 01:03:57;;;;;;;6.70;5.97;;;;;;;;;;6038950;23;20018;-73
2023/09/18 01:06:27;;;;;;;11.77;6.45;;;;;;;;;;6038718;23;20059;-74
2023/09/18 01:08:54;;;;;;;10.23;5.88;;;;;;;;;;6064332;23;20007;-73
2023/09/18 01:11:31;;;;;;;8.43;5.60;;;;;;;;;;6039213;23;20010;-74
2023/09/18 01:14:34;;;;;;;9.60;5.60;;;;;;;;;;6064537;23;20037;-74
2023/09/18 01:17:04;;;;;;;9.70;5.60;;;;;;;;;;6039103;23;20015;-74
2023/09/18 01:19:37;;;;;;;8.68;6.15;;;;;;;;;;6039045;23;20364;-75
2023/09/18 01:22:04;;;;;;;7.72;5.28;;;;;;;;;;6039602;23;20030;-75
2023/09/18 01:24:32;;;;;;;10.70;6.40;;;;;;;;;;6039548;23;20343;-73
2023/09/18 01:26:58;;;;;;;7.32;5.95;;;;;;;;;;6039389;23;20003;-74
2023/09/18 01:29:23;;;;;;;8.07;5.78;;;;;;;;;;6063271;23;20014;-74
2023/09/18 01:31:49;;;;;;;9.75;6.10;;;;;;;;;;6039219;23;20018;-74
2023/09/18 01:34:21;;;;;;;10.68;5.95;;;;;;;;;;6039203;23;20441;-74
2023/09/18 01:36:47;;;;;;;12.07;6.10;;;;;;;;;;6063091;23;20011;-73
2023/09/18 01:39:15;;;;;;;9.90;5.78;;;;;;;;;;6065276;23;20373;-74
2023/09/18 01:41:41;;;;;;;9.52;5.93;;;;;;;;;;6064633;23;20007;-75
2023/09/18 01:44:07;;;;;;;8.77;5.47;;;;;;;;;;6040535;23;20488;-74
2023/09/18 01:46:36;;;;;;;9.32;6.38;;;;;;;;;;6065200;23;20676;-75
2023/09/18 01:49:03;;;;;;;9.73;5.97;;;;;;;;;;6039882;23;20445;-75
2023/09/18 01:51:29;;;;;;;10.40;6.43;;;;;;;;;;6066909;23;20003;-74
2023/09/18 01:53:55;;;;;;;8.13;6.22;;;;;;;;;;6040433;23;20407;-75
2023/09/18 01:56:22;;;;;;;10.20;6.95;;;;;;;;;;6043262;23;20002;-77
2023/09/18 01:58:47;;;;;;;9.35;6.80;;;;;;;;;;6074562;23;20014;-78
2023/09/18 02:01:13;;;;;;;8.90;7.00;;;;;;;;;;6047721;23;20011;-79
2023/09/18 02:03:41;;;;;;;8.75;6.90;;;;;;;;;;6044391;23;20036;-78
2023/09/18 02:06:08;;;;;;;12.02;7.32;;;;;;;;;;6065370;23;20086;-79
2023/09/18 02:08:34;;;;;;;10.43;7.22;;;;;;;;;;6039769;23;20070;-78
2023/09/18 02:11:00;;;;;;;9.73;7.80;;;;;;;;;;6038962;23;20021;-77
2023/09/18 02:13:26;;;;;;;10.57;7.10;;;;;;;;;;6065452;23;20058;-77
2023/09/18 02:15:51;;;;;;;11.45;7.35;;;;;;;;;;6065748;23;20010;-76
2023/09/18 02:18:17;;;;;;;15.88;7.13;;;;;;;;;;6066691;23;20007;-77
2023/09/18 02:20:47;;;;;;;10.77;7.20;;;;;;;;;;6040739;23;20314;-77
2023/09/18 02:23:13;;;;;;;10.07;7.57;;;;;;;;;;6066978;23;20006;-78
2023/09/18 02:25:40;;;;;;;11.85;6.95;;;;;;;;;;6067000;23;20090;-79
2023/09/18 02:28:06;;;;;;;9.20;6.97;;;;;;;;;;6067761;23;20026;-79
2023/09/18 02:30:31;;;;;;;11.15;6.78;;;;;;;;;;6046489;23;20444;-78
2023/09/18 02:32:57;;;;;;;11.25;7.93;;;;;;;;;;6047334;23;20017;-79
2023/09/18 02:35:23;;;;;;;9.80;8.02;;;;;;;;;;6047222;23;20425;-78
2023/09/18 02:37:48;;;;;;;10.23;8.00;;;;;;;;;;6048906;23;20035;-79
2023/09/18 02:40:14;;;;;;;9.60;7.72;;;;;;;;;;6071762;23;20082;-79
2023/09/18 02:42:39;;;;;;;10.70;7.50;;;;;;;;;;6045056;23;20030;-79
2023/09/18 02:45:06;;;;;;;10.40;6.95;;;;;;;;;;6042575;23;20480;-78
2023/09/18 02:47:32;;;;;;;11.27;7.68;;;;;;;;;;6041352;23;20014;-77
2023/09/18 02:49:57;;;;;;;10.60;7.85;;;;;;;;;;6039773;23;20097;-78
2023/09/18 02:52:23;;;;;;;9.15;6.97;;;;;;;;;;6041171;23;20291;-78
2023/09/18 02:54:48;;;;;;;11.45;7.50;;;;;;;;;;6041072;23;20662;-78
2023/09/18 02:57:14;;;;;;;11.85;7.35;;;;;;;;;;6066664;23;20007;-79
2023/09/18 02:59:39;;;;;;;11.63;7.85;;;;;;;;;;6065416;23;20010;-79
2023/09/18 03:02:05;;;;;;;12.60;7.32;;;;;;;;;;6066696;23;20013;-79
2023/09/18 03:04:31;;;;;;;11.98;7.63;;;;;;;;;;6066640;23;20140;-77
2023/09/18 03:06:57;;;;;;;14.52;7.78;;;;;;;;;;6040596;23;20007;-77
2023/09/18 03:09:22;;;;;;;10.13;8.07;;;;;;;;;;6041971;23;20445;-77
2023/09/18 03:11:48;;;;;;;10.60;7.72;;;;;;;;;;6042204;23;20460;-78
2023/09/18 03:14:13;;;;;;;8.13;6.75;;;;;;;;;;6069082;23;20007;-78
2023/09/18 03:16:39;;;;;;;8.98;7.25;;;;;;;;;;6076473;23;20460;-77
2023/09/18 03:19:04;;;;;;;10.32;8.75;;;;;;;;;;6060773;23;20134;-77
2023/09/18 03:21:33;;;;;;;15.68;8.15;;;;;;;;;;6083158;23;20002;-78
2023/09/18 03:23:59;;;;;;;14.50;8.63;;;;;;;;;;6050317;23;20011;-78
2023/09/18 03:26:24;;;;;;;9.45;7.50;;;;;;;;;;6047185;23;20042;-78
2023/09/18 03:28:50;;;;;;;9.40;7.60;;;;;;;;;;6046849;23;20452;-78
2023/09/18 03:31:15;;;;;;;11.93;8.32;;;;;;;;;;6042962;23;20628;-79
2023/09/18 03:33:41;;;;;;;9.93;7.70;;;;;;;;;;6066968;23;20074;-78
2023/09/18 03:36:07;;;;;;;10.82;8.20;;;;;;;;;;6066729;23;20078;-77
2023/09/18 03:38:35;;;;;;;11.65;8.20;;;;;;;;;;6042211;23;20021;-77
2023/09/18 03:41:01;;;;;;;10.13;8.52;;;;;;;;;;6066243;23;20055;-77
2023/09/18 03:43:26;;;;;;;10.57;7.75;;;;;;;;;;6040886;23;20003;-78
2023/09/18 03:45:52;;;;;;;10.88;8.15;;;;;;;;;;6040551;23;20022;-79
2023/09/18 03:48:18;;;;;;;10.40;7.60;;;;;;;;;;6040401;23;20481;-79
2023/09/18 03:50:43;;;;;;;8.77;7.57;;;;;;;;;;6065423;23;20083;-79
2023/09/18 03:53:09;;;;;;;13.05;8.70;;;;;;;;;;6040117;23;20436;-78
2023/09/18 03:55:35;;;;;;;13.27;9.63;;;;;;;;;;6039908;23;20006;-78
2023/09/18 03:58:01;;;;;;;11.00;8.52;;;;;;;;;;6039917;23;20007;-78
2023/09/18 04:00:26;;;;;;;15.32;9.07;;;;;;;;;;6039592;23;20101;-79
2023/09/18 04:02:52;;;;;;;11.93;8.73;;;;;;;;;;6039481;23;20117;-77
2023/09/18 04:05:18;;;;;;;12.77;8.25;;;;;;;;;;6039750;23;20011;-77
2023/09/18 04:07:46;;;;;;;17.15;8.27;;;;;;;;;;6040495;23;20011;-78
2023/09/18 04:10:18;;;;;;;10.75;8.85;;;;;;;;;;6065476;23;20018;-79
2023/09/18 04:12:46;;;;;;;14.65;9.75;;;;;;;;;;6040298;23;20011;-78
2023/09/18 04:15:18;;;;;;;10.80;8.80;;;;;;;;;;6066221;23;19998;-78
2023/09/18 04:17:44;;;;;;;12.02;8.55;;;;;;;;;;6066195;23;20034;-78
2023/09/18 04:20:11;;;;;;;10.43;8.25;;;;;;;;;;6065429;23;20027;-79
2023/09/18 04:22:43;;;;;;;12.45;8.80;;;;;;;;;;6066571;23;20006;-78
2023/09/18 04:25:08;;;;;;;15.82;9.20;;;;;;;;;;6065995;23;20380;-78
2023/09/18 04:27:34;;;;;;;14.95;8.52;;;;;;;;;;6065787;23;20041;-77
2023/09/18 04:30:00;;;;;;;12.75;8.82;;;;;;;;;;6038484;23;20155;-76
2023/09/18 04:32:29;;;;;;;13.68;10.02;;;;;;;;;;6054803;23;20052;-75
2023/09/18 04:34:55;;;;;;;16.85;8.70;;;;;;;;;;6062083;23;20006;-73
2023/09/18 04:37:23;;;;;;;11.48;8.23;;;;;;;;;;6064030;23;20654;-73
2023/09/18 04:39:49;;;;;;;15.93;9.95;;;;;;;;;;6064178;23;20078;-73
2023/09/18 04:42:15;;;;;;;14.07;8.82;;;;;;;;;;6037653;23;20649;-75
2023/09/18 04:44:41;;;;;;;13.73;8.73;;;;;;;;;;6064044;23;20038;-75
2023/09/18 04:47:07;;;;;;;11.77;8.88;;;;;;;;;;6063031;23;20043;-77
2023/09/18 04:49:33;;;;;;;17.02;10.70;;;;;;;;;;6039074;23;20003;-77
2023/09/18 04:51:58;;;;;;;13.65;9.75;;;;;;;;;;6072772;23;20014;-79
2023/09/18 04:54:24;;;;;;;12.48;9.73;;;;;;;;;;6053417;23;20079;-81
2023/09/18 04:56:49;;;;;;;30.25;13.32;;;;;;;;;;6049590;23;20101;-79
2023/09/18 04:59:15;;;;;;;17.85;11.25;;;;;;;;;;6067475;23;20037;-74
2023/09/18 05:01:42;;;;;;;17.38;12.10;;;;;;;;;;6038141;23;20531;-74
2023/09/18 05:04:08;;;;;;;19.90;12.25;;;;;;;;;;6038988;23;20010;-75
2023/09/18 05:06:34;;;;;;;24.63;13.20;;;;;;;;;;6038765;23;20074;-75
2023/09/18 05:08:59;;;;;;;18.55;11.57;;;;;;;;;;6054750;23;20054;-75
2023/09/18 05:11:25;;;;;;;18.08;11.40;;;;;;;;;;6038482;23;20105;-76
2023/09/18 05:13:52;;;;;;;20.88;11.90;;;;;;;;;;6060962;23;20034;-76
2023/09/18 05:16:18;;;;;;;18.75;11.48;;;;;;;;;;6063243;23;19999;-77
2023/09/18 05:18:44;;;;;;;14.02;10.40;;;;;;;;;;6063040;23;20085;-77
2023/09/18 05:21:09;;;;;;;26.15;11.43;;;;;;;;;;6033348;23;20107;-74
2023/09/18 05:23:36;;;;;;;16.67;11.13;;;;;;;;;;6030753;23;20007;-77
2023/09/18 05:26:02;;;;;;;19.08;11.85;;;;;;;;;;6033407;23;20018;-79
2023/09/18 05:28:28;;;;;;;17.42;11.52;;;;;;;;;;6035042;23;20432;-78
2023/09/18 05:30:54;;;;;;;17.70;11.68;;;;;;;;;;6032753;23;20007;-79
2023/09/18 05:33:20;;;;;;;15.23;10.63;;;;;;;;;;6032204;23;20067;-78
2023/09/18 05:35:47;;;;;;;14.75;10.55;;;;;;;;;;6035911;23;20695;-78
2023/09/18 05:38:14;;;;;;;18.38;11.35;;;;;;;;;;6034857;23;20003;-75
2023/09/18 05:40:40;;;;;;;16.77;10.27;;;;;;;;;;6033957;23;20030;-76
2023/09/18 05:43:06;;;;;;;18.00;10.20;;;;;;;;;;6029849;23;20521;-75
2023/09/18 05:45:33;;;;;;;20.90;11.90;;;;;;;;;;6032210;23;20090;-75
2023/09/18 05:48:05;;;;;;;18.20;11.50;;;;;;;;;;6029769;23;20113;-76
2023/09/18 05:50:32;;;;;;;19.05;10.23;;;;;;;;;;6033049;23;20003;-77
2023/09/18 05:53:03;;;;;;;17.15;10.77;;;;;;;;;;6032522;23;20321;-75
2023/09/18 05:55:33;;;;;;;15.88;11.55;;;;;;;;;;6035475;23;20360;-75
2023/09/18 05:58:00;;;;;;;25.67;13.50;;;;;;;;;;6032477;23;20031;-78
2023/09/18 06:00:27;;;;;;;19.58;11.75;;;;;;;;;;6033099;23;20011;-76
2023/09/18 06:02:53;;;;;;;20.17;12.02;;;;;;;;;;6032180;23;20042;-77
2023/09/18 06:05:22;;;;;;;22.75;12.68;;;;;;;;;;6026914;23;20074;-74
2023/09/18 06:07:48;;;;;;;20.90;11.13;;;;;;;;;;6030188;23;20319;-77
2023/09/18 06:10:14;;;;;;;21.20;11.82;;;;;;;;;;6030344;23;20011;-74
2023/09/18 06:12:40;;;;;;;19.80;10.75;;;;;;;;;;6024500;23;20015;-77
2023/09/18 06:15:09;;;;;;;16.35;11.45;;;;;;;;;;6031821;23;20080;-76
2023/09/18 06:17:39;;;;;;;25.48;11.25;;;;;;;;;;6027198;23;20007;-76
2023/09/18 06:20:09;;;;;;;22.83;11.25;;;;;;;;;;6030631;23;20528;-77
2023/09/18 06:22:34;;;;;;;17.45;10.90;;;;;;;;;;6031311;23;20015;-76
2023/09/18 06:25:00;;;;;;;23.70;11.60;;;;;;;;;;6036747;23;20078;-76
2023/09/18 06:27:25;;;;;;;17.95;11.98;;;;;;;;;;6034261;23;20035;-76
2023/09/18 06:29:52;;;;;;;20.40;11.93;;;;;;;;;;6032370;23;20015;-75
2023/09/18 06:32:18;;;;;;;20.08;11.35;;;;;;;;;;6034946;23;20010;-75
2023/09/18 06:34:44;;;;;;;18.65;11.20;;;;;;;;;;6032443;23;20011;-76
2023/09/18 06:37:12;;;;;;;18.88;11.15;;;;;;;;;;6031318;23;20330;-75
2023/09/18 06:39:38;;;;;;;19.65;11.57;;;;;;;;;;6034836;23;20007;-77
2023/09/18 06:42:04;;;;;;;18.05;10.95;;;;;;;;;;6031341;23;20659;-76
2023/09/18 06:44:30;;;;;;;20.30;10.90;;;;;;;;;;6031524;23;20034;-75
2023/09/18 06:46:56;;;;;;;19.30;10.63;;;;;;;;;;6033125;23;20349;-76
2023/09/18 06:49:21;;;;;;;16.98;10.70;;;;;;;;;;6030509;23;20015;-76
2023/09/18 06:51:47;;;;;;;20.48;11.93;;;;;;;;;;6031771;23;20089;-77
2023/09/18 06:54:12;;;;;;;17.70;10.50;;;;;;;;;;6032329;23;20353;-73
2023/09/18 06:56:38;;;;;;;24.10;10.82;;;;;;;;;;6035764;23;20287;-74
2023/09/18 06:59:05;;;;;;;21.23;10.90;;;;;;;;;;6036248;23;20011;-76
2023/09/18 07:01:32;;;;;;;20.23;12.27;;;;;;;;;;6038360;23;20078;-76
2023/09/18 07:03:59;;;;;;;20.67;12.52;;;;;;;;;;6034088;23;20417;-76
2023/09/18 07:06:28;;;;;;;18.80;11.85;;;;;;;;;;6035038;23;20015;-76
2023/09/18 07:08:53;;;;;;;20.42;12.10;;;;;;;;;;6035424;23;20035;-76
2023/09/18 07:11:19;;;;;;;14.15;10.55;;;;;;;;;;6032105;23;20003;-75
2023/09/18 07:13:44;;;;;;;13.88;9.95;;;;;;;;;;6030249;23;20004;-75
2023/09/18 07:16:11;;;;;;;17.20;10.50;;;;;;;;;;6059122;23;20015;-77
2023/09/18 07:18:36;;;;;;;14.40;9.75;;;;;;;;;;6031180;23;20026;-75
2023/09/18 07:21:02;;;;;;;13.75;9.80;;;;;;;;;;6064211;23;20113;-76
2023/09/18 07:23:30;;;;;;;16.38;9.88;;;;;;;;;;6041087;23;20041;-78
2023/09/18 07:25:57;;;;;;;15.88;10.63;;;;;;;;;;6052529;23;20145;-78
2023/09/18 07:28:29;;;;;;;11.35;8.75;;;;;;;;;;6061438;23;20011;-78
2023/09/18 07:30:55;;;;;;;18.08;10.40;;;;;;;;;;6037248;23;20104;-74
2023/09/18 07:33:22;;;;;;;14.23;9.70;;;;;;;;;;6037868;23;20022;-77
2023/09/18 07:35:49;;;;;;;12.98;8.52;;;;;;;;;;6060986;23;19995;-76
2023/09/18 07:38:15;;;;;;;17.27;9.15;;;;;;;;;;6038857;23;20006;-77
2023/09/18 07:40:40;;;;;;;15.40;8.77;;;;;;;;;;6031762;23;20015;-77
2023/09/18 07:43:06;;;;;;;17.05;9.60;;;;;;;;;;6038050;23;20030;-76
2023/09/18 07:45:41;;;;;;;12.90;8.95;;;;;;;;;;6064832;23;20058;-76
2023/09/18 07:48:07;;;;;;;23.05;9.75;;;;;;;;;;6031780;23;20436;-77
2023/09/18 07:50:34;;;;;;;13.43;8.18;;;;;;;;;;6032191;23;20018;-77
2023/09/18 07:53:00;;;;;;;10.70;7.85;;;;;;;;;;6029979;23;20140;-76
2023/09/18 07:55:26;;;;;;;12.65;8.23;;;;;;;;;;6034940;23;20006;-76
2023/09/18 07:57:52;;;;;;;13.80;8.90;;;;;;;;;;6035819;23;20015;-76
2023/09/18 08:00:18;;;;;;;15.00;8.25;;;;;;;;;;6035290;23;20021;-75
2023/09/18 08:02:49;;;;;;;20.00;8.23;;;;;;;;;;6031957;23;20409;-76
2023/09/18 08:05:14;;;;;;;16.13;8.45;;;;;;;;;;6055867;23;20014;-76
2023/09/18 08:07:40;;;;;;;10.10;7.47;;;;;;;;;;6031369;23;20006;-76
2023/09/18 08:10:08;;;;;;;18.00;8.88;;;;;;;;;;6031439;23;20030;-77
2023/09/18 08:12:34;;;;;;;14.80;7.60;;;;;;;;;;6057479;23;19999;-76
2023/09/18 08:15:00;;;;;;;12.82;8.50;;;;;;;;;;6029759;23;20010;-76
2023/09/18 08:17:26;;;;;;;11.95;7.80;;;;;;;;;;6063195;23;20013;-78
2023/09/18 08:19:53;;;;;;;12.52;8.10;;;;;;;;;;6062874;23;20019;-77
2023/09/18 08:22:20;;;;;;;9.20;7.05;;;;;;;;;;6060207;23;20082;-78
2023/09/18 08:24:52;;;;;;;13.90;8.15;;;;;;;;;;6060312;23;20053;-77
2023/09/18 08:27:19;;;;;;;13.07;8.05;;;;;;;;;;6008455;23;20109;-77
2023/09/18 08:29:48;;;;;;;15.63;6.90;;;;;;;;;;6057318;23;20776;-77
2023/09/18 08:32:14;;;;;;;8.30;6.78;;;;;;;;;;6003403;23;20015;-76
2023/09/18 08:34:41;;;;;;;11.05;6.75;;;;;;;;;;6033191;23;20081;-78
2023/09/18 08:37:06;;;;;;;11.27;7.75;;;;;;;;;;6057358;23;20003;-80
2023/09/18 08:39:32;;;;;;;11.88;6.85;;;;;;;;;;6031241;23;20003;-77
2023/09/18 08:42:02;;;;;;;16.67;6.93;;;;;;;;;;6026229;23;20085;-78
2023/09/18 08:44:28;;;;;;;16.27;6.60;;;;;;;;;;6030232;23;20388;-78
2023/09/18 08:46:56;;;;;;;8.07;6.13;;;;;;;;;;6030610;23;20018;-78
2023/09/18 08:49:23;;;;;;;10.73;7.35;;;;;;;;;;6031847;23;20015;-76
2023/09/18 08:51:54;;;;;;;9.95;6.15;;;;;;;;;;6028612;23;20014;-79
2023/09/18 08:54:21;;;;;;;14.23;6.07;;;;;;;;;;6030880;23;20121;-76
2023/09/18 08:56:47;;;;;;;6.95;5.22;;;;;;;;;;6055239;23;20090;-78
2023/09/18 08:59:13;;;;;;;7.25;5.15;;;;;;;;;;6052133;23;20007;-79
2023/09/18 09:01:39;;;;;;;9.30;5.93;;;;;;;;;;6026615;23;20038;-76
2023/09/18 09:04:05;;;;;;;8.93;6.55;;;;;;;;;;6022768;23;20014;-77
2023/09/18 09:06:31;;;;;;;9.30;5.88;;;;;;;;;;6028937;23;20066;-79
2023/09/18 09:08:57;;;;;;;11.05;5.70;;;;;;;;;;6026933;23;20014;-78
2023/09/18 09:11:23;;;;;;;6.68;4.60;;;;;;;;;;6030238;23;20010;-79
2023/09/18 09:14:17;;;;;;;11.70;5.43;;;;;;;;;;6026972;23;20448;-78
2023/09/18 09:17:06;;;;;;;8.45;5.07;;;;;;;;;;6029743;23;20010;-78
2023/09/18 09:19:42;;;;;;;7.22;4.82;;;;;;;;;;6032001;23;20057;-73
2023/09/18 09:22:20;;;;;;;5.18;4.00;;;;;;;;;;6026396;23;20029;-77
2023/09/18 09:24:46;;;;;;;7.03;4.82;;;;;;;;;;6052755;23;20011;-75
2023/09/18 09:27:14;;;;;;;9.35;5.05;;;;;;;;;;6027841;23;20015;-78
2023/09/18 09:29:41;;;;;;;9.57;4.80;;;;;;;;;;6029913;23;20018;-77
2023/09/18 09:32:17;;;;;;;15.27;5.70;;;;;;;;;;6032223;23;20452;-77
2023/09/18 09:34:46;;;;;;;4.50;4.10;;;;;;;;;;6053297;23;20019;-76
2023/09/18 09:37:11;;;;;;;5.00;4.50;;;;;;;;;;6026007;23;20711;-76
2023/09/18 09:39:51;;;;;;;9.02;5.50;;;;;;;;;;6027527;23;20021;-75
2023/09/18 09:42:22;;;;;;;10.18;4.38;;;;;;;;;;6028636;23;20425;-79
2023/09/18 09:44:48;;;;;;;6.15;4.53;;;;;;;;;;6026382;23;20057;-77
2023/09/18 09:47:19;;;;;;;5.10;4.10;;;;;;;;;;6005143;23;20090;-78
2023/09/18 09:49:47;;;;;;;6.32;4.15;;;;;;;;;;6005872;23;20015;-77
2023/09/18 09:52:22;;;;;;;9.85;5.35;;;;;;;;;;6056725;23;20011;-78
2023/09/18 09:54:48;;;;;;;8.40;3.83;;;;;;;;;;6029634;23;20033;-79
2023/09/18 09:57:13;;;;;;;7.95;3.78;;;;;;;;;;6056805;23;20007;-80
2023/09/18 09:59:44;;;;;;;8.43;4.07;;;;;;;;;;6028987;23;20377;-77
2023/09/18 10:02:14;;;;;;;7.57;4.03;;;;;;;;;;6042311;23;20040;-75
2023/09/18 10:04:40;;;;;;;9.60;4.38;;;;;;;;;;6037069;23;20045;-75
2023/09/18 10:07:08;;;;;;;5.07;3.78;;;;;;;;;;6058099;23;20044;-77
2023/09/18 10:09:36;;;;;;;7.25;5.25;;;;;;;;;;6027792;23;20014;-79
2023/09/18 10:12:09;;;;;;;5.25;4.38;;;;;;;;;;6028319;23;20018;-80
2023/09/18 10:14:42;;;;;;;6.43;4.72;;;;;;;;;;6027624;23;20007;-80
2023/09/18 10:17:19;;;;;;;9.20;5.40;;;;;;;;;;6053585;23;20011;-78
2023/09/18 10:19:56;;;;;;;7.63;4.20;;;;;;;;;;6033159;23;20504;-82
2023/09/18 10:22:37;;;;;;;4.68;4.22;;;;;;;;;;6056904;23;20058;-79
2023/09/18 10:25:31;;;;;;;8.88;4.93;;;;;;;;;;6029737;23;20085;-80
2023/09/18 10:28:01;;;;;;;7.18;4.85;;;;;;;;;;6023515;23;20011;-77
2023/09/18 10:30:29;;;;;;;11.43;4.20;;;;;;;;;;6054523;23;20017;-81
2023/09/18 10:32:59;;;;;;;6.72;4.47;;;;;;;;;;6030522;23;20594;-80
2023/09/18 10:35:26;;;;;;;7.38;5.00;;;;;;;;;;6053203;23;20011;-78
2023/09/18 10:37:54;;;;;;;5.43;4.93;;;;;;;;;;6029547;23;20121;-77
2023/09/18 10:40:22;;;;;;;7.95;4.63;;;;;;;;;;6030201;23;20641;-77
2023/09/18 10:42:50;;;;;;;6.55;4.53;;;;;;;;;;6030585;23;20006;-78
2023/09/18 10:45:15;;;;;;;4.30;3.90;;;;;;;;;;6052024;23;20006;-78
2023/09/18 10:47:48;;;;;;;7.43;4.65;;;;;;;;;;6058186;23;20021;-80
2023/09/18 10:50:30;;;;;;;4.30;3.90;;;;;;;;;;6059773;23;20435;-77
2023/09/18 10:53:13;;;;;;;5.28;3.63;;;;;;;;;;6048176;23;20007;-79
2023/09/18 10:55:39;;;;;;;4.80;3.90;;;;;;;;;;6008090;23;20033;-77
2023/09/18 10:58:04;;;;;;;6.88;4.20;;;;;;;;;;6030429;23;20039;-78
2023/09/18 11:00:36;;;;;;;4.22;3.83;;;;;;;;;;6030816;23;20014;-76
2023/09/18 11:03:23;;;;;;;6.03;4.30;;;;;;;;;;6028030;23;20013;-77
2023/09/18 11:06:06;;;;;;;7.38;3.67;;;;;;;;;;6054553;23;20087;-76
2023/09/18 11:09:03;;;;;;;5.13;4.28;;;;;;;;;;6029311;23;20755;-78
2023/09/18 11:11:32;;;;;;;6.30;4.18;;;;;;;;;;6028801;23;20025;-76
2023/09/18 11:14:02;;;;;;;4.30;3.70;;;;;;;;;;6029136;23;20038;-76
2023/09/18 11:16:31;;;;;;;6.75;4.30;;;;;;;;;;6053697;23;20007;-76
2023/09/18 11:19:10;;;;;;;5.00;4.47;;;;;;;;;;6056302;23;20018;-77
2023/09/18 11:21:36;;;;;;;5.85;4.00;;;;;;;;;;6052833;23;20117;-76
2023/09/18 11:24:11;;;;;;;6.47;4.13;;;;;;;;;;6025357;23;20109;-74
2023/09/18 11:26:41;;;;;;;4.47;4.07;;;;;;;;;;6025868;23;20003;-76
2023/09/18 11:29:09;;;;;;;4.30;3.83;;;;;;;;;;6005931;23;20003;-78
2023/09/18 11:31:56;;;;;;;6.95;3.65;;;;;;;;;;6054063;23;20743;-79
2023/09/18 11:34:36;;;;;;;6.78;3.80;;;;;;;;;;6051988;23;20111;-77
2023/09/18 11:37:20;;;;;;;4.25;3.85;;;;;;;;;;6029671;23;20497;-80
2023/09/18 11:39:49;;;;;;;6.00;3.58;;;;;;;;;;6056111;23;20421;-80
2023/09/18 11:42:26;;;;;;;6.03;3.80;;;;;;;;;;6030509;23;20007;-80
2023/09/18 11:44:53;;;;;;;9.40;4.50;;;;;;;;;;6033172;23;20037;-78
2023/09/18 11:47:23;;;;;;;4.43;3.92;;;;;;;;;;6068600;23;20010;-79
2023/09/18 11:50:00;;;;;;;5.25;4.25;;;;;;;;;;6041966;23;20034;-77
2023/09/18 11:52:30;;;;;;;7.60;4.20;;;;;;;;;;6064106;23;20077;-77
2023/09/18 11:54:59;;;;;;;4.82;4.32;;;;;;;;;;6035893;23;20018;-78
2023/09/18 11:57:25;;;;;;;4.88;4.28;;;;;;;;;;6064086;23;20013;-78
2023/09/18 11:59:51;;;;;;;6.85;4.20;;;;;;;;;;6038587;23;20409;-77
2023/09/18 12:02:45;;;;;;;8.32;3.97;;;;;;;;;;6034184;23;20038;-76
2023/09/18 12:05:15;;;;;;;10.32;4.22;;;;;;;;;;6031106;23;20679;-76
2023/09/18 12:07:45;;;;;;;4.97;4.37;;;;;;;;;;6033254;23;20038;-77
2023/09/18 12:10:29;;;;;;;5.57;3.85;;;;;;;;;;6059451;23;20240;-78
2023/09/18 12:12:55;;;;;;;8.02;3.92;;;;;;;;;;6055931;23;20415;-75
2023/09/18 12:15:21;;;;;;;9.68;4.50;;;;;;;;;;6049996;23;20030;-76
2023/09/18 12:17:47;;;;;;;5.50;4.00;;;;;;;;;;6055002;23;20007;-78
2023/09/18 12:20:19;;;;;;;22.27;18.58;;;;;;;;;;6029615;23;20027;-77
2023/09/18 12:22:48;;;;;;;9.02;4.90;;;;;;;;;;6051990;23;20017;-78
2023/09/18 12:25:18;;;;;;;8.05;4.10;;;;;;;;;;6027841;23;20090;-78
2023/09/18 12:27:52;;;;;;;4.47;4.07;;;;;;;;;;6030591;23;20010;-77
2023/09/18 12:30:20;;;;;;;4.63;4.20;;;;;;;;;;6030762;23;20041;-77
2023/09/18 12:32:49;;;;;;;7.93;4.28;;;;;;;;;;6055472;23;20013;-77
2023/09/18 12:35:18;;;;;;;5.50;5.00;;;;;;;;;;6059011;23;20118;-77
2023/09/18 12:37:44;;;;;;;6.55;4.32;;;;;;;;;;6034585;23;20491;-77
2023/09/18 12:40:22;;;;;;;5.00;4.15;;;;;;;;;;6033728;23;20010;-77
2023/09/18 12:42:48;;;;;;;9.18;4.55;;;;;;;;;;6032234;23;20047;-77
2023/09/18 12:45:14;;;;;;;5.13;3.92;;;;;;;;;;6025622;23;20019;-78
2023/09/18 12:47:40;;;;;;;4.20;3.50;;;;;;;;;;6055928;23;20010;-77
2023/09/18 12:50:07;;;;;;;7.05;3.75;;;;;;;;;;6029865;23;20015;-76
2023/09/18 12:52:33;;;;;;;7.28;3.80;;;;;;;;;;6007434;23;20022;-79
2023/09/18 12:55:01;;;;;;;6.30;4.43;;;;;;;;;;6030352;23;20089;-79
2023/09/18 12:57:28;;;;;;;9.73;4.50;;;;;;;;;;6037994;23;20459;-79
2023/09/18 12:59:54;;;;;;;6.05;4.82;;;;;;;;;;6041859;23;20014;-78
2023/09/18 13:02:20;;;;;;;11.13;5.40;;;;;;;;;;6041828;23;20109;-76
2023/09/18 13:04:56;;;;;;;9.93;4.38;;;;;;;;;;6033412;23;20387;-77
2023/09/18 13:07:27;;;;;;;5.95;4.30;;;;;;;;;;6050535;23;20029;-80
2023/09/18 13:10:03;;;;;;;;;;;;;;;;;;6031820;23;20011;-75
2023/09/18 13:12:55;;;;;;;6.53;4.88;;;;;;;;;;6027932;23;19938;-79
2023/09/18 13:15:33;;;;;;;7.28;3.70;;;;;;;;;;6026637;23;20003;-78
2023/09/18 13:18:04;;;;;;;5.30;3.95;;;;;;;;;;6027097;23;20052;-78
2023/09/18 13:20:30;;;;;;;8.10;4.90;;;;;;;;;;6030166;23;20027;-81
2023/09/18 13:22:58;;;;;;;5.45;3.80;;;;;;;;;;6033108;23;20018;-82
2023/09/18 13:25:28;;;;;;;7.10;4.82;;;;;;;;;;6035798;23;20417;-80
2023/09/18 13:27:54;;;;;;;10.80;4.27;;;;;;;;;;6069173;23;20093;-79
2023/09/18 13:30:21;;;;;;;7.38;4.47;;;;;;;;;;6071728;23;20017;-80
2023/09/18 13:32:50;;;;;;;6.18;4.13;;;;;;;;;;6069546;23;20007;-78
2023/09/18 13:35:17;;;;;;;6.50;4.00;;;;;;;;;;6031835;23;20065;-82
2023/09/18 13:37:43;;;;;;;6.03;4.10;;;;;;;;;;6056175;23;20114;-77
2023/09/18 13:40:11;;;;;;;6.72;4.15;;;;;;;;;;6031567;23;20022;-78
2023/09/18 13:42:37;;;;;;;9.35;4.10;;;;;;;;;;6029284;23;20002;-79
2023/09/18 13:45:06;;;;;;;9.65;7.18;;;;;;;;;;6029235;23;20010;-77
2023/09/18 13:47:32;;;;;;;10.82;6.50;;;;;;;;;;6034210;23;20734;-74
2023/09/18 13:50:01;;;;;;;6.72;4.22;;;;;;;;;;6054304;23;20328;-79
2023/09/18 13:52:30;;;;;;;5.40;4.85;;;;;;;;;;6056415;23;20007;-78
2023/09/18 13:54:56;;;;;;;5.05;4.53;;;;;;;;;;6029470;23;20194;-76
2023/09/18 13:57:23;;;;;;;5.38;4.13;;;;;;;;;;6029579;23;20027;-78
2023/09/18 13:59:50;;;;;;;5.13;4.40;;;;;;;;;;6054435;23;20504;-80
2023/09/18 14:02:16;;;;;;;26.08;5.80;;;;;;;;;;6032610;23;20412;-76
2023/09/18 14:04:43;;;;;;;6.55;3.80;;;;;;;;;;6055003;23;20089;-79
2023/09/18 14:07:10;;;;;;;8.10;3.75;;;;;;;;;;6056597;23;20007;-81
2023/09/18 14:09:36;;;;;;;6.63;5.72;;;;;;;;;;6058045;23;20006;-75
2023/09/18 14:12:03;;;;;;;7.85;4.75;;;;;;;;;;6062817;23;20007;-78
2023/09/18 14:14:29;;;;;;;8.52;4.35;;;;;;;;;;6013471;23;20015;-78
2023/09/18 14:16:57;;;;;;;4.97;3.97;;;;;;;;;;6066703;23;20006;-80
2023/09/18 14:19:25;;;;;;;5.93;4.07;;;;;;;;;;6069643;23;20018;-77
2023/09/18 14:21:51;;;;;;;4.30;3.90;;;;;;;;;;6040456;23;20049;-78
2023/09/18 14:24:21;;;;;;;4.00;3.60;;;;;;;;;;6015648;23;20018;-78
2023/09/18 14:26:48;;;;;;;12.27;4.63;;;;;;;;;;6037031;23;20090;-78
2023/09/18 14:29:14;;;;;;;7.20;3.78;;;;;;;;;;6035466;23;20097;-80
2023/09/18 14:31:40;;;;;;;6.85;3.90;;;;;;;;;;6062129;23;20346;-81
2023/09/18 14:34:05;;;;;;;6.38;4.30;;;;;;;;;;6061558;23;20037;-80
2023/09/18 14:36:35;;;;;;;6.22;3.80;;;;;;;;;;6037798;23;20014;-78
2023/09/18 14:39:02;;;;;;;5.57;3.75;;;;;;;;;;6038342;23;20292;-79